Time;durP1;ratioP1;P1;durP2;ratioP2;P2;SDS_P1;SDS_P2;PMS_P1;PMS_P2;Temp;Humidity;BMP_temperature;BMP_pressure;BME280_temperature;BME280_humidity;BME280_pressure;Samples;Min_cycle;Max_cycle;Signal;HPM_P1;HPM_P2
2022/10/26 00:01:10;;;;;;;7.90;5.60;;;;;;;12.50;87.56;100331.80;126917;1285;107646;-75
2022/10/26 00:04:16;;;;;;;7.60;5.80;;;;;;;12.44;87.69;100332.23;126841;1272;107478;-76
2022/10/26 00:07:22;;;;;;;8.90;6.40;;;;;;;12.41;87.71;100340.30;126844;1286;107457;-78
2022/10/26 00:10:28;;;;;;;10.10;6.60;;;;;;;12.35;87.72;100344.77;126882;1285;107585;-77
2022/10/26 00:13:34;;;;;;;9.60;6.90;;;;;;;12.29;87.65;100343.67;126864;1279;107326;-75
2022/10/26 00:16:39;;;;;;;8.50;6.60;;;;;;;12.23;87.76;100341.45;126930;1285;107447;-75
2022/10/26 00:19:45;;;;;;;9.70;5.80;;;;;;;12.19;87.78;100338.11;126828;1276;107516;-76
2022/10/26 00:22:50;;;;;;;10.50;6.30;;;;;;;12.16;87.76;100344.80;126834;1285;107542;-77
2022/10/26 00:25:59;;;;;;;9.60;6.00;;;;;;;12.12;87.68;100344.17;126959;1292;107461;-75
2022/10/26 00:29:05;;;;;;;9.30;6.40;;;;;;;12.07;87.74;100349.21;126907;1278;107435;-74
2022/10/26 00:32:10;;;;;;;10.40;7.90;;;;;;;12.00;87.75;100351.28;126955;1279;107509;-76
2022/10/26 00:35:16;;;;;;;10.50;8.50;;;;;;;11.93;87.90;100351.48;126889;1284;107509;-75
2022/10/26 00:38:22;;;;;;;10.40;7.40;;;;;;;11.87;88.01;100353.92;126894;1285;109327;-76
2022/10/26 00:41:29;;;;;;;8.30;6.40;;;;;;;11.84;88.01;100358.33;126880;1284;107520;-76
2022/10/26 00:45:04;;;;;;;9.10;6.40;;;;;;;11.82;87.97;100358.16;126913;1284;108670;-75
2022/10/26 00:48:17;;;;;;;10.00;7.40;;;;;;;11.80;88.03;100357.98;126649;1286;107214;-76
2022/10/26 00:51:29;;;;;;;10.30;7.40;;;;;;;11.76;88.17;100358.06;126827;1285;106927;-76
2022/10/26 00:54:35;;;;;;;10.60;6.50;;;;;;;11.72;88.26;100359.31;126896;1278;107288;-74
2022/10/26 00:57:41;;;;;;;9.80;6.50;;;;;;;11.70;88.49;100366.09;126844;1286;107658;-76
2022/10/26 01:00:47;;;;;;;9.50;7.10;;;;;;;11.73;88.81;100369.91;126865;1292;107495;-77
2022/10/26 01:03:53;;;;;;;12.80;8.40;;;;;;;11.78;88.74;100368.14;126796;1286;108038;-76
2022/10/26 01:06:59;;;;;;;11.10;8.10;;;;;;;11.84;88.55;100368.10;126923;1285;107519;-77
2022/10/26 01:10:06;;;;;;;11.90;8.60;;;;;;;11.89;88.72;100368.63;126873;1292;106315;-78
2022/10/26 01:13:14;;;;;;;11.70;8.10;;;;;;;11.92;88.71;100371.26;126900;1285;107033;-78
2022/10/26 01:16:46;;;;;;;8.40;7.10;;;;;;;11.92;88.82;100371.09;126849;1289;107281;-77
2022/10/26 01:20:19;;;;;;;12.50;8.40;;;;;;;11.95;88.93;100370.00;126843;1280;107528;-77
2022/10/26 01:23:32;;;;;;;12.10;8.20;;;;;;;12.01;88.96;100372.75;126867;1286;107491;-76
2022/10/26 01:26:53;;;;;;;12.40;8.90;;;;;;;12.05;88.93;100371.99;127040;1285;105699;-78
2022/10/26 01:30:36;;;;;;;16.10;11.00;;;;;;;12.05;88.89;100375.23;126845;1289;107359;-76
2022/10/26 01:33:45;;;;;;;13.20;9.30;;;;;;;12.03;89.02;100376.00;126904;1286;107344;-76
2022/10/26 01:36:56;;;;;;;12.70;8.30;;;;;;;12.07;89.19;100372.21;126819;1292;107624;-79
2022/10/26 01:40:09;;;;;;;16.00;9.70;;;;;;;12.10;89.06;100372.05;126898;1291;107341;-78
2022/10/26 01:43:17;;;;;;;14.40;9.80;;;;;;;12.12;89.19;100370.55;126958;1285;107512;-78
2022/10/26 01:46:24;;;;;;;12.80;10.20;;;;;;;12.14;89.26;100374.09;126893;1285;107054;-77
2022/10/26 01:49:33;;;;;;;16.00;13.20;;;;;;;12.13;89.07;100375.11;126964;1284;107579;-76
2022/10/26 01:52:39;;;;;;;18.70;11.20;;;;;;;12.13;89.29;100378.88;126927;1285;106593;-76
2022/10/26 01:55:49;;;;;;;12.60;9.70;;;;;;;12.12;89.29;100378.58;126920;1284;105584;-77
2022/10/26 01:59:19;;;;;;;14.40;11.20;;;;;;;12.16;89.52;100378.20;126779;1279;107397;-77
2022/10/26 02:02:45;;;;;;;15.60;11.00;;;;;;;12.21;89.58;100375.04;126837;1280;107507;-78
2022/10/26 02:06:03;;;;;;;17.40;11.30;;;;;;;12.23;89.61;100373.74;127057;1278;107304;-76
2022/10/26 02:09:20;;;;;;;15.10;10.50;;;;;;;12.21;89.63;100374.61;126830;1285;107272;-78
2022/10/26 02:12:34;;;;;;;17.30;11.60;;;;;;;12.18;89.70;100379.74;126965;1286;107326;-78
2022/10/26 02:15:46;;;;;;;13.70;11.50;;;;;;;12.16;90.11;100378.46;126891;1284;106179;-76
2022/10/26 02:19:00;;;;;;;14.50;11.80;;;;;;;12.19;90.12;100379.82;126975;1287;107513;-76
2022/10/26 02:22:13;;;;;;;14.80;11.30;;;;;;;12.22;90.03;100379.33;126920;1278;107470;-76
2022/10/26 02:25:23;;;;;;;14.20;12.00;;;;;;;12.24;90.14;100380.57;126891;1288;105756;-77
2022/10/26 02:28:33;;;;;;;18.60;11.80;;;;;;;12.22;89.96;100381.50;126908;1289;107135;-76
2022/10/26 02:31:40;;;;;;;18.10;12.80;;;;;;;12.21;90.09;100388.08;126884;1285;107395;-76
2022/10/26 02:34:49;;;;;;;15.20;11.50;;;;;;;12.23;90.23;100390.17;126987;1296;107472;-77
2022/10/26 02:37:58;;;;;;;15.90;11.50;;;;;;;12.26;90.27;100388.58;127015;1279;106390;-79
2022/10/26 02:41:06;;;;;;;16.80;12.00;;;;;;;12.28;90.25;100392.79;127230;1279;107802;-78
2022/10/26 02:44:16;;;;;;;17.80;12.70;;;;;;;12.30;90.30;100394.02;127112;1278;107536;-79
2022/10/26 02:47:22;;;;;;;19.70;11.00;;;;;;;12.26;90.26;100394.78;127065;1272;107334;-77
2022/10/26 02:50:33;;;;;;;17.70;11.30;;;;;;;12.20;90.27;100395.48;127028;1285;107310;-77
2022/10/26 02:53:46;;;;;;;16.00;12.90;;;;;;;12.17;90.41;100401.23;126983;1284;107575;-79
2022/10/26 02:56:56;;;;;;;16.30;12.00;;;;;;;12.14;90.11;100400.30;127097;1285;107505;-78
2022/10/26 03:00:02;;;;;;;16.00;11.90;;;;;;;12.13;90.17;100402.92;127078;1279;106453;-79
2022/10/26 03:03:08;;;;;;;18.00;11.40;;;;;;;12.09;90.15;100403.01;127247;1278;107677;-80
2022/10/26 03:06:20;;;;;;;14.50;10.50;;;;;;;12.03;90.05;100404.38;127226;1285;107498;-80
2022/10/26 03:09:26;;;;;;;16.00;11.60;;;;;;;11.95;90.06;100403.05;126998;1278;108058;-80
2022/10/26 03:12:31;;;;;;;20.50;13.50;;;;;;;11.87;89.97;100409.65;127044;1279;107272;-80
2022/10/26 03:15:37;;;;;;;17.40;14.10;;;;;;;11.84;90.01;100412.92;127014;1278;107476;-80
2022/10/26 03:18:42;;;;;;;15.20;12.10;;;;;;;11.78;89.75;100416.48;126987;1279;107302;-80
2022/10/26 03:21:47;;;;;;;16.60;11.10;;;;;;;11.70;89.53;100415.00;127008;1279;106261;-81
2022/10/26 03:24:53;;;;;;;17.70;11.60;;;;;;;11.62;89.52;100414.77;127127;1278;105634;-81
2022/10/26 03:28:03;;;;;;;13.70;9.70;;;;;;;11.52;89.78;100413.73;127087;1280;107566;-80
2022/10/26 03:31:09;;;;;;;12.20;8.90;;;;;;;11.44;89.68;100414.38;126964;1275;107336;-80
2022/10/26 03:34:14;;;;;;;12.70;9.70;;;;;;;11.36;89.40;100417.81;127204;1286;107942;-80
2022/10/26 03:37:20;;;;;;;12.60;9.80;;;;;;;11.30;89.43;100424.15;127161;1280;107426;-80
2022/10/26 03:40:25;;;;;;;11.00;9.20;;;;;;;11.25;89.36;100424.53;127082;1285;107383;-79
2022/10/26 03:43:31;;;;;;;15.50;10.30;;;;;;;11.18;89.10;100423.79;127032;1286;107491;-80
2022/10/26 03:46:36;;;;;;;13.80;10.70;;;;;;;11.10;89.24;100422.76;127094;1286;107376;-80
2022/10/26 03:49:41;;;;;;;11.80;9.10;;;;;;;11.01;89.04;100432.55;127033;1286;107430;-80
2022/10/26 03:52:48;;;;;;;9.90;7.60;;;;;;;10.92;88.83;100436.83;127185;1285;108024;-80
2022/10/26 03:55:53;;;;;;;14.00;9.00;;;;;;;10.84;88.80;100441.88;127184;1286;108088;-81
2022/10/26 03:58:59;;;;;;;11.70;9.30;;;;;;;10.78;88.89;100447.23;127251;1278;107384;-81
2022/10/26 04:02:04;;;;;;;12.00;8.90;;;;;;;10.73;88.58;100446.48;127129;1279;107562;-79
2022/10/26 04:05:11;;;;;;;10.90;8.40;;;;;;;10.70;88.58;100452.20;127068;1285;107634;-80
2022/10/26 04:08:16;;;;;;;10.90;7.80;;;;;;;10.67;88.48;100452.40;127278;1278;106562;-79
2022/10/26 04:11:21;;;;;;;11.40;8.00;;;;;;;10.68;88.69;100446.84;127020;1285;107700;-78
2022/10/26 04:14:27;;;;;;;15.20;10.70;;;;;;;10.71;88.64;100452.45;127101;1286;105693;-82
2022/10/26 04:17:32;;;;;;;16.10;12.20;;;;;;;10.77;89.17;100454.50;127040;1279;107325;-80
2022/10/26 04:20:40;;;;;;;20.90;12.70;;;;;;;10.86;89.55;100453.85;127278;1280;106279;-80
2022/10/26 04:23:46;;;;;;;23.60;15.30;;;;;;;10.95;89.87;100453.40;127194;1279;107428;-79
2022/10/26 04:26:51;;;;;;;22.80;16.00;;;;;;;11.06;89.90;100451.52;127145;1280;107568;-77
2022/10/26 04:29:57;;;;;;;28.30;17.60;;;;;;;11.12;90.00;100456.36;126949;1285;107463;-77
2022/10/26 04:33:02;;;;;;;24.80;16.90;;;;;;;11.12;90.42;100456.27;127055;1285;107585;-78
2022/10/26 04:36:09;;;;;;;21.20;14.70;;;;;;;11.15;90.24;100462.02;127023;1279;107483;-77
2022/10/26 04:39:15;;;;;;;18.40;13.40;;;;;;;11.24;90.76;100462.55;126918;1279;107434;-78
2022/10/26 04:42:20;;;;;;;18.70;14.00;;;;;;;11.25;90.70;100470.11;126855;1291;105751;-77
2022/10/26 04:45:27;;;;;;;17.20;11.50;;;;;;;11.22;90.79;100470.52;127002;1278;107493;-78
2022/10/26 04:48:32;;;;;;;17.00;11.80;;;;;;;11.24;90.99;100475.74;127186;1284;107559;-77
2022/10/26 04:51:38;;;;;;;19.40;15.00;;;;;;;11.21;91.13;100474.92;127135;1279;107539;-77
2022/10/26 04:54:43;;;;;;;16.30;12.30;;;;;;;11.26;91.17;100474.27;127100;1279;107404;-76
2022/10/26 04:57:49;;;;;;;16.90;12.60;;;;;;;11.28;91.27;100475.69;127020;1278;107504;-76
2022/10/26 05:00:54;;;;;;;17.20;11.90;;;;;;;11.30;91.29;100471.73;127068;1278;107539;-78
2022/10/26 05:03:59;;;;;;;16.40;10.60;;;;;;;11.34;91.09;100470.60;127118;1294;107496;-77
2022/10/26 05:07:05;;;;;;;15.40;11.30;;;;;;;11.39;91.41;100470.85;127059;1278;107334;-77
2022/10/26 05:10:11;;;;;;;18.00;14.00;;;;;;;11.45;91.30;100473.97;126829;1278;107518;-78
2022/10/26 05:13:17;;;;;;;23.10;16.40;;;;;;;11.50;91.34;100476.70;127193;1279;106047;-77
2022/10/26 05:16:23;;;;;;;20.50;14.50;;;;;;;11.53;91.58;100480.29;127123;1280;107528;-77
2022/10/26 05:19:28;;;;;;;19.30;13.00;;;;;;;11.52;91.34;100480.44;127146;1279;107622;-77
2022/10/26 05:22:33;;;;;;;19.90;13.50;;;;;;;11.52;91.57;100482.02;127212;1286;107447;-77
2022/10/26 05:25:39;;;;;;;21.20;14.80;;;;;;;11.56;91.45;100484.82;127094;1286;107577;-78
2022/10/26 05:28:45;;;;;;;24.30;17.00;;;;;;;11.60;91.39;100487.77;127094;1285;107437;-78
2022/10/26 05:31:50;;;;;;;30.10;19.80;;;;;;;11.64;91.61;100487.52;127075;1278;107372;-78
2022/10/26 05:34:55;;;;;;;24.50;17.10;;;;;;;11.66;91.64;100492.48;126991;1280;108033;-76
2022/10/26 05:38:06;;;;;;;23.60;16.40;;;;;;;11.63;91.74;100490.72;127491;1286;107455;-80
2022/10/26 05:41:11;;;;;;;35.10;23.80;;;;;;;11.62;91.96;100490.31;127631;1284;107394;-79
2022/10/26 05:44:17;;;;;;;21.90;16.80;;;;;;;11.63;92.00;100496.27;127365;1284;107497;-81
2022/10/26 05:47:22;;;;;;;21.90;15.50;;;;;;;11.67;92.02;100502.39;127264;1286;107179;-81
2022/10/26 05:50:27;;;;;;;23.00;15.70;;;;;;;11.71;92.11;100507.31;127224;1286;107460;-81
2022/10/26 05:53:33;;;;;;;18.30;12.60;;;;;;;11.70;91.92;100513.37;127308;1286;107551;-80
2022/10/26 05:56:40;;;;;;;18.20;12.20;;;;;;;11.71;92.02;100517.36;127308;1279;107510;-79
2022/10/26 05:59:46;;;;;;;20.50;14.40;;;;;;;11.79;92.12;100517.09;127070;1286;107384;-78
2022/10/26 06:03:07;;;;;;;18.80;13.80;;;;;;;11.85;92.18;100519.30;127010;1286;106407;-79
2022/10/26 06:06:14;;;;;;;19.80;13.60;;;;;;;11.90;92.26;100518.11;127008;1288;107368;-79
2022/10/26 06:09:21;;;;;;;22.20;13.90;;;;;;;11.96;91.97;100520.42;127202;1294;107499;-80
2022/10/26 06:12:27;;;;;;;23.00;14.70;;;;;;;11.97;91.98;100519.59;127235;1272;107506;-79
2022/10/26 06:15:38;;;;;;;20.50;14.40;;;;;;;12.02;92.06;100524.98;127155;1295;107498;-81
2022/10/26 06:18:54;;;;;;;25.30;16.10;;;;;;;12.09;92.09;100524.91;127288;1279;107471;-80
2022/10/26 06:22:10;;;;;;;21.80;15.60;;;;;;;12.14;92.02;100523.85;127401;1278;108017;-79
2022/10/26 06:25:27;;;;;;;22.10;16.00;;;;;;;12.18;92.03;100526.51;126871;1278;105464;-77
2022/10/26 06:28:42;;;;;;;22.30;15.20;;;;;;;12.18;91.90;100528.61;127234;1285;107940;-77
2022/10/26 06:31:48;;;;;;;27.40;17.80;;;;;;;12.21;92.07;100531.44;127041;1281;107388;-80
2022/10/26 06:35:02;;;;;;;27.90;17.50;;;;;;;12.27;91.97;100537.16;127027;1295;107662;-78
2022/10/26 06:38:11;;;;;;;25.40;15.80;;;;;;;12.36;92.10;100539.73;127053;1278;107272;-76
2022/10/26 06:41:19;;;;;;;25.80;16.10;;;;;;;12.44;92.05;100543.46;127005;1286;107315;-78
2022/10/26 06:44:25;;;;;;;24.90;16.40;;;;;;;12.49;91.72;100548.35;127100;1279;108364;-80
2022/10/26 06:47:38;;;;;;;23.80;14.70;;;;;;;12.49;91.82;100550.97;127119;1279;107513;-77
2022/10/26 06:50:50;;;;;;;17.70;12.90;;;;;;;12.52;91.82;100555.02;126965;1278;107350;-77
2022/10/26 06:54:04;;;;;;;21.80;14.80;;;;;;;12.56;91.72;100557.05;127142;1271;107524;-79
2022/10/26 06:57:12;;;;;;;24.10;14.90;;;;;;;12.60;91.59;100561.88;127026;1286;107630;-76
2022/10/26 07:00:22;;;;;;;20.20;14.30;;;;;;;12.65;91.86;100555.48;127246;1278;107515;-76
2022/10/26 07:03:27;;;;;;;22.80;14.30;;;;;;;12.70;91.61;100558.16;126990;1278;108561;-79
2022/10/26 07:06:33;;;;;;;19.60;12.90;;;;;;;12.71;91.53;100556.93;126998;1279;107371;-79
2022/10/26 07:09:38;;;;;;;17.80;13.00;;;;;;;12.75;91.55;100552.80;127085;1279;107658;-80
2022/10/26 07:12:44;;;;;;;18.00;13.00;;;;;;;12.79;91.65;100557.54;127268;1279;107509;-81
2022/10/26 07:15:49;;;;;;;18.70;12.60;;;;;;;12.87;91.58;100558.00;127370;1279;107498;-81
2022/10/26 07:18:54;;;;;;;20.40;13.10;;;;;;;12.93;91.44;100556.63;127031;1279;108015;-78
2022/10/26 07:22:17;;;;;;;19.40;13.10;;;;;;;12.97;91.25;100558.32;127196;1279;108992;-80
2022/10/26 07:25:23;;;;;;;15.70;11.10;;;;;;;13.02;91.31;100564.09;126979;1278;108673;-77
2022/10/26 07:28:29;;;;;;;17.60;11.30;;;;;;;13.07;91.30;100566.77;126940;1272;107599;-78
2022/10/26 07:31:34;;;;;;;15.40;11.20;;;;;;;13.12;91.17;100570.33;126941;1279;105945;-79
2022/10/26 07:34:39;;;;;;;17.90;12.20;;;;;;;13.21;91.25;100572.95;126892;1284;107297;-78
2022/10/26 07:37:45;;;;;;;17.10;12.30;;;;;;;13.27;90.99;100574.50;126860;1272;107481;-78
2022/10/26 07:40:53;;;;;;;17.90;12.90;;;;;;;13.31;90.97;100577.30;126803;1279;107609;-78
2022/10/26 07:43:58;;;;;;;14.20;10.10;;;;;;;13.35;90.94;100578.67;126896;1279;107657;-78
2022/10/26 07:47:03;;;;;;;12.20;8.90;;;;;;;13.38;90.94;100575.30;126863;1294;107536;-78
2022/10/26 07:50:10;;;;;;;14.00;9.90;;;;;;;13.48;90.89;100575.13;126909;1279;107496;-78
2022/10/26 07:53:16;;;;;;;16.30;11.30;;;;;;;13.59;90.78;100582.20;126907;1279;107443;-77
2022/10/26 07:56:21;;;;;;;17.70;12.80;;;;;;;13.69;90.76;100587.73;126859;1276;107516;-78
2022/10/26 07:59:26;;;;;;;18.00;13.70;;;;;;;13.77;90.62;100587.78;126860;1286;107538;-77
2022/10/26 08:02:32;;;;;;;15.40;10.30;;;;;;;13.79;90.48;100588.34;126859;1279;107513;-76
2022/10/26 08:05:38;;;;;;;12.80;9.50;;;;;;;13.80;90.46;100587.28;126886;1284;107612;-80
2022/10/26 08:08:43;;;;;;;12.10;9.60;;;;;;;13.83;90.14;100588.56;127694;1286;107527;-79
2022/10/26 08:11:49;;;;;;;12.90;9.20;;;;;;;13.87;90.01;100586.55;127001;1278;106509;-76
2022/10/26 08:14:54;;;;;;;16.00;10.00;;;;;;;13.97;89.98;100586.35;126999;1279;107529;-78
2022/10/26 08:18:00;;;;;;;16.20;10.60;;;;;;;14.05;89.82;100589.51;127116;1278;105985;-75
2022/10/26 08:21:07;;;;;;;18.50;12.30;;;;;;;14.09;89.67;100594.48;126720;1289;107517;-76
2022/10/26 08:24:13;;;;;;;17.10;11.90;;;;;;;14.08;89.41;100596.88;126989;1279;107481;-76
2022/10/26 08:27:18;;;;;;;21.50;12.60;;;;;;;14.10;89.66;100600.85;127059;1272;108101;-77
2022/10/26 08:30:24;;;;;;;19.20;12.80;;;;;;;14.10;89.57;100598.32;127298;1278;107445;-77
2022/10/26 08:33:29;;;;;;;17.50;12.30;;;;;;;14.09;89.65;100604.91;127119;1286;107549;-79
2022/10/26 08:36:34;;;;;;;21.40;13.50;;;;;;;14.18;89.43;100602.45;126900;1286;107528;-79
2022/10/26 08:39:40;;;;;;;19.00;12.20;;;;;;;14.29;89.32;100596.58;127158;1289;106395;-78
2022/10/26 08:42:49;;;;;;;20.60;13.40;;;;;;;14.42;89.27;100597.14;127164;1279;107493;-79
2022/10/26 08:45:58;;;;;;;16.00;11.40;;;;;;;14.47;89.25;100597.70;127075;1296;107276;-80
2022/10/26 08:49:12;;;;;;;16.50;11.00;;;;;;;14.57;89.36;100600.92;127156;1279;107743;-80
2022/10/26 08:52:23;;;;;;;17.20;11.00;;;;;;;14.66;88.95;100601.40;127091;1272;107361;-77
2022/10/26 08:55:38;;;;;;;14.00;9.70;;;;;;;14.69;88.91;100603.30;126929;1278;107511;-76
2022/10/26 08:58:49;;;;;;;14.40;10.60;;;;;;;14.77;88.99;100608.11;126924;1279;107527;-76
2022/10/26 09:01:55;;;;;;;15.40;10.90;;;;;;;14.84;88.66;100610.00;126868;1279;107511;-78
2022/10/26 09:05:04;;;;;;;14.30;10.50;;;;;;;14.88;88.19;100608.71;126892;1278;107512;-77
2022/10/26 09:08:18;;;;;;;14.90;10.70;;;;;;;14.92;88.21;100619.93;126900;1295;107520;-77
2022/10/26 09:11:36;;;;;;;18.60;11.20;;;;;;;14.95;88.12;100619.41;126892;1272;106420;-77
2022/10/26 09:14:56;;;;;;;16.00;10.90;;;;;;;14.97;87.80;100622.73;126914;1272;107404;-77
2022/10/26 09:18:15;;;;;;;14.20;9.90;;;;;;;14.88;87.25;100630.68;126833;1286;107372;-77
2022/10/26 09:21:32;;;;;;;16.30;10.60;;;;;;;14.88;87.86;100636.67;126917;1279;107629;-78
2022/10/26 09:24:42;;;;;;;12.90;9.50;;;;;;;14.92;87.47;100638.00;126920;1295;107347;-78
2022/10/26 09:27:52;;;;;;;16.20;11.00;;;;;;;14.93;87.60;100639.51;126842;1285;107415;-78
2022/10/26 09:31:01;;;;;;;16.80;11.80;;;;;;;14.93;87.31;100646.45;126976;1279;107534;-77
2022/10/26 09:34:07;;;;;;;18.50;12.00;;;;;;;14.96;87.42;100651.73;126943;1272;107571;-77
2022/10/26 09:37:18;;;;;;;21.30;11.90;;;;;;;15.02;87.31;100651.95;126991;1278;107513;-77
2022/10/26 09:40:33;;;;;;;20.10;13.10;;;;;;;15.08;87.22;100657.56;126940;1279;107372;-78
2022/10/26 09:43:45;;;;;;;19.30;12.60;;;;;;;15.18;87.11;100657.84;127045;1279;107487;-77
2022/10/26 09:47:00;;;;;;;23.90;13.90;;;;;;;15.34;87.12;100657.27;127125;1286;107473;-78
2022/10/26 09:50:20;;;;;;;22.50;14.00;;;;;;;15.48;86.79;100660.52;127101;1286;106651;-77
2022/10/26 09:53:26;;;;;;;18.50;13.30;;;;;;;15.57;86.54;100657.14;127083;1278;106546;-78
2022/10/26 09:56:32;;;;;;;18.10;12.30;;;;;;;15.66;86.34;100662.60;126842;1279;108626;-77
2022/10/26 09:59:41;;;;;;;20.10;14.30;;;;;;;15.63;86.05;100660.47;126845;1295;107266;-78
2022/10/26 10:02:50;;;;;;;14.70;11.00;;;;;;;15.54;86.00;100661.25;126935;1286;107466;-78
2022/10/26 10:06:14;;;;;;;15.70;10.60;;;;;;;15.54;86.18;100664.21;126830;1278;105494;-79
2022/10/26 10:09:22;;;;;;;11.80;10.00;;;;;;;15.66;86.04;100667.99;127014;1279;107249;-78
2022/10/26 10:12:27;;;;;;;13.70;10.40;;;;;;;15.69;85.95;100664.33;126917;1279;107413;-77
2022/10/26 10:15:32;;;;;;;14.00;10.40;;;;;;;15.71;85.61;100665.40;126879;1286;107521;-76
2022/10/26 10:18:39;;;;;;;12.30;10.00;;;;;;;15.73;85.32;100664.93;126838;1279;107478;-76
2022/10/26 10:21:48;;;;;;;12.70;9.60;;;;;;;15.78;85.45;100660.80;126960;1286;107480;-77
2022/10/26 10:24:58;;;;;;;12.40;9.90;;;;;;;15.84;84.81;100662.97;126965;1278;106147;-77
2022/10/26 10:28:19;;;;;;;13.00;9.20;;;;;;;15.76;84.32;100662.10;126908;1279;107307;-76
2022/10/26 10:31:31;;;;;;;9.70;8.30;;;;;;;15.76;84.50;100661.10;126811;1279;107400;-79
2022/10/26 10:34:36;;;;;;;13.90;9.70;;;;;;;15.80;84.63;100660.14;126944;1279;106780;-75
2022/10/26 10:37:45;;;;;;;10.10;7.90;;;;;;;15.83;84.24;100658.41;126811;1272;135597;-76
2022/10/26 10:40:56;;;;;;;11.70;9.00;;;;;;;15.88;84.69;100656.28;126865;1276;107508;-77
2022/10/26 10:44:06;;;;;;;12.50;9.40;;;;;;;15.98;84.25;100655.21;127036;1278;106000;-76
2022/10/26 10:47:22;;;;;;;11.90;9.40;;;;;;;15.91;83.81;100654.92;126885;1278;107485;-77
2022/10/26 10:50:28;;;;;;;10.60;9.00;;;;;;;15.82;83.69;100655.41;126923;1279;107338;-75
2022/10/26 10:53:38;;;;;;;13.10;8.80;;;;;;;15.83;83.95;100655.89;126901;1279;108425;-75
2022/10/26 10:56:48;;;;;;;10.50;9.40;;;;;;;15.88;83.70;100650.23;126941;1278;107308;-75
2022/10/26 11:00:02;;;;;;;12.80;9.00;;;;;;;15.84;83.76;100649.12;126910;1279;108114;-76
2022/10/26 11:03:24;;;;;;;9.40;7.50;;;;;;;15.85;83.63;100642.67;126845;1286;108570;-77
2022/10/26 11:06:34;;;;;;;9.60;6.80;;;;;;;15.92;83.57;100643.14;126976;1271;107268;-76
2022/10/26 11:09:44;;;;;;;9.80;7.40;;;;;;;15.99;83.54;100638.17;126884;1286;107203;-76
2022/10/26 11:12:55;;;;;;;8.60;7.20;;;;;;;16.04;83.31;100640.95;126989;1279;107598;-77
2022/10/26 11:16:05;;;;;;;11.40;7.60;;;;;;;16.08;83.18;100640.50;127033;1286;107421;-77
2022/10/26 11:19:22;;;;;;;9.70;7.40;;;;;;;16.16;83.03;100638.77;127071;1271;107340;-77
2022/10/26 11:22:33;;;;;;;8.50;6.90;;;;;;;16.17;82.74;100641.22;127039;1278;107508;-81
2022/10/26 11:25:47;;;;;;;9.20;6.90;;;;;;;16.07;82.52;100632.98;127175;1271;107376;-77
2022/10/26 11:28:59;;;;;;;9.70;6.50;;;;;;;15.97;82.57;100636.23;126926;1286;107375;-78
2022/10/26 11:32:06;;;;;;;;;;;;;;;16.01;82.66;100642.60;126942;1279;107400;-76
2022/10/26 11:35:18;;;;;;;12.20;7.00;;;;;;;16.08;82.62;100642.38;126895;1279;107448;-76
2022/10/26 11:38:29;;;;;;;7.90;5.80;;;;;;;16.21;82.26;100642.05;126993;1285;107509;-77
2022/10/26 11:41:40;;;;;;;9.20;6.70;;;;;;;16.31;82.42;100641.93;126848;1279;107284;-76
2022/10/26 11:44:51;;;;;;;10.40;6.90;;;;;;;16.36;82.13;100642.64;126959;1279;107372;-78
2022/10/26 11:48:04;;;;;;;9.30;7.10;;;;;;;16.34;81.92;100646.86;127111;1279;107545;-77
2022/10/26 11:51:16;;;;;;;9.00;5.70;;;;;;;16.35;81.96;100644.46;126885;1286;107498;-76
2022/10/26 11:54:28;;;;;;;7.30;5.40;;;;;;;16.34;81.76;100646.84;126918;1276;107478;-78
2022/10/26 11:57:36;;;;;;;8.10;5.90;;;;;;;16.40;81.91;100647.52;126934;1286;107432;-77
2022/10/26 12:00:49;;;;;;;17.80;9.10;;;;;;;16.51;81.93;100646.27;127269;1285;106623;-77
2022/10/26 12:03:57;;;;;;;25.80;14.70;;;;;;;16.63;81.75;100646.10;127103;1278;107513;-77
2022/10/26 12:07:08;;;;;;;36.60;18.60;;;;;;;16.70;81.43;100646.73;126969;1279;107344;-79
2022/10/26 12:10:24;;;;;;;18.20;12.40;;;;;;;16.74;81.11;100648.98;126940;1278;107233;-75
2022/10/26 12:13:36;;;;;;;11.30;7.70;;;;;;;16.78;81.07;100650.27;126871;1278;106372;-76
2022/10/26 12:16:52;;;;;;;12.30;6.50;;;;;;;16.74;80.95;100647.91;126935;1278;107620;-76
2022/10/26 12:20:07;;;;;;;8.50;6.60;;;;;;;16.70;80.62;100652.12;126825;1278;105557;-76
2022/10/26 12:23:14;;;;;;;9.10;6.90;;;;;;;16.64;80.10;100647.13;126844;1272;107299;-76
2022/10/26 12:26:54;;;;;;;9.50;6.80;;;;;;;16.45;78.79;100655.45;126935;1278;107310;-76
2022/10/26 12:30:28;;;;;;;9.60;6.20;;;;;;;16.32;79.74;100655.73;126901;1279;106557;-76
2022/10/26 12:33:50;;;;;;;7.10;5.50;;;;;;;16.26;80.33;100655.47;127065;1278;105517;-76
2022/10/26 12:37:28;;;;;;;6.80;5.40;;;;;;;16.28;79.98;100659.70;126895;1273;107416;-78
2022/10/26 12:40:44;;;;;;;8.80;5.80;;;;;;;16.22;78.66;100660.66;126921;1279;107508;-76
2022/10/26 12:43:50;;;;;;;7.50;5.30;;;;;;;16.14;78.43;100662.10;126997;1278;105713;-75
2022/10/26 12:46:55;;;;;;;6.80;5.00;;;;;;;16.06;78.95;100666.80;126890;1286;107405;-75
2022/10/26 12:50:01;;;;;;;8.00;5.40;;;;;;;16.09;79.53;100658.44;126945;1286;107993;-76
2022/10/26 12:53:13;;;;;;;8.00;5.70;;;;;;;16.15;79.17;100658.66;126875;1279;107470;-77
2022/10/26 12:56:28;;;;;;;9.30;6.80;;;;;;;16.20;79.58;100659.09;126904;1278;107356;-76
2022/10/26 12:59:40;;;;;;;7.90;6.20;;;;;;;16.22;79.69;100658.70;126954;1278;107239;-77
2022/10/26 13:02:51;;;;;;;;;;;;;;;16.21;79.75;100655.88;127110;1296;107318;-77
2022/10/26 13:06:22;;;;;;;6.70;5.40;;;;;;;16.22;79.70;100655.43;127016;1278;107434;-78
2022/10/26 13:09:31;;;;;;;9.30;4.80;;;;;;;16.39;78.98;100656.61;127080;1286;107578;-78
2022/10/26 13:12:51;;;;;;;10.40;7.00;;;;;;;16.61;78.81;100653.18;127218;1278;107517;-78
2022/10/26 13:15:57;;;;;;;24.90;16.70;;;;;;;16.79;78.35;100650.90;127200;1278;107479;-78
2022/10/26 13:19:03;;;;;;;15.20;11.00;;;;;;;16.78;77.90;100653.13;127277;1279;107403;-78
2022/10/26 13:22:16;;;;;;;25.20;17.60;;;;;;;16.75;78.03;100653.52;127139;1271;107422;-77
2022/10/26 13:25:25;;;;;;;135.40;66.90;;;;;;;16.72;77.92;100655.64;127058;1284;108505;-78
2022/10/26 13:28:44;;;;;;;36.90;20.40;;;;;;;16.66;77.92;100654.26;126981;1278;107423;-78
2022/10/26 13:31:57;;;;;;;84.50;34.70;;;;;;;16.52;77.78;100661.22;127057;1278;107627;-75
2022/10/26 13:35:04;;;;;;;21.80;12.00;;;;;;;16.40;77.29;100656.41;127020;1280;107444;-75
2022/10/26 13:38:13;;;;;;;13.50;8.90;;;;;;;16.20;76.27;100658.52;127060;1278;107684;-76
2022/10/26 13:41:27;;;;;;;10.20;8.70;;;;;;;15.92;75.49;100663.39;127207;1279;107136;-77
2022/10/26 13:44:38;;;;;;;10.90;9.30;;;;;;;15.70;76.11;100662.69;127272;1279;107422;-78
2022/10/26 13:47:48;;;;;;;9.50;7.70;;;;;;;15.61;77.11;100662.63;127095;1285;107333;-76
2022/10/26 13:50:55;;;;;;;10.50;7.80;;;;;;;15.57;77.24;100665.27;126897;1296;107558;-75
2022/10/26 13:54:07;;;;;;;9.80;6.00;;;;;;;15.56;76.98;100665.38;126874;1279;107423;-76
2022/10/26 13:57:17;;;;;;;;;;;;;;;15.49;76.45;100668.46;126954;1286;107425;-74
2022/10/26 14:00:24;;;;;;;9.10;6.00;;;;;;;15.42;75.05;100672.00;127169;1279;107467;-74
2022/10/26 14:03:30;;;;;;;6.90;5.20;;;;;;;15.30;75.58;100672.81;127212;1279;107423;-74
2022/10/26 14:06:38;;;;;;;8.50;5.70;;;;;;;15.24;76.24;100673.65;127185;1279;106284;-77
2022/10/26 14:09:44;;;;;;;12.20;10.00;;;;;;;15.22;76.58;100671.66;127003;1278;108437;-75